createdAt,value
2016-09-25T00:00:37.974Z,0
2016-09-25T00:01:37.951Z,0
2016-09-25T00:02:37.350Z,0
2016-09-25T00:03:37.566Z,0
2016-09-25T00:04:37.924Z,0
2016-09-25T00:05:37.526Z,0
2016-09-25T00:06:37.527Z,0
2016-09-25T00:07:37.506Z,0
2016-09-25T00:08:37.528Z,0
2016-09-25T00:09:37.857Z,0
2016-09-25T00:10:37.781Z,0
2016-09-25T00:11:37.115Z,0
2016-09-25T00:12:37.740Z,0
2016-09-25T00:13:37.717Z,0
2016-09-25T00:14:37.418Z,0
2016-09-25T00:15:37.381Z,0
2016-09-25T00:16:37.685Z,0
2016-09-25T00:17:37.669Z,0
2016-09-25T00:18:37.665Z,0
2016-09-25T00:19:37.693Z,0
2016-09-25T00:20:37.308Z,0
2016-09-25T00:21:37.280Z,0
2016-09-25T00:22:37.263Z,0
2016-09-25T00:23:37.564Z,0
2016-09-25T00:24:36.597Z,0
2016-09-25T00:25:37.212Z,0
2016-09-25T00:26:37.208Z,0
2016-09-25T00:27:37.533Z,0
2016-09-25T00:28:37.508Z,0
2016-09-25T00:29:37.162Z,0
2016-09-25T00:30:37.135Z,0
2016-09-25T00:31:37.125Z,0
2016-09-25T00:32:36.484Z,0
2016-09-25T00:33:37.407Z,0
2016-09-25T00:34:36.755Z,0
2016-09-25T00:35:37.385Z,0
2016-09-25T00:36:37.382Z,0
2016-09-25T00:37:37.340Z,0
2016-09-25T00:38:37.030Z,0
2016-09-25T00:39:37.044Z,0
2016-09-25T00:40:37.303Z,0
2016-09-25T00:41:37.280Z,0
2016-09-25T00:42:36.728Z,0
2016-09-25T00:43:36.938Z,0
2016-09-25T00:44:36.934Z,0
2016-09-25T00:45:36.267Z,0
2016-09-25T00:46:36.908Z,0
2016-09-25T00:47:36.877Z,0
2016-09-25T00:48:36.549Z,0
2016-09-25T00:49:36.935Z,0
2016-09-25T00:50:36.835Z,0
2016-09-25T00:51:36.916Z,0
2016-09-25T00:52:37.112Z,0
2016-09-25T00:53:36.465Z,0
2016-09-25T00:54:36.804Z,0
2016-09-25T00:55:36.853Z,0
2016-09-25T00:56:37.058Z,0
2016-09-25T00:57:36.405Z,0
2016-09-25T00:58:36.805Z,0
2016-09-25T00:59:36.692Z,0
2016-09-25T01:00:36.356Z,0
2016-09-25T01:01:36.964Z,0
2016-09-25T01:02:36.644Z,0
2016-09-25T01:03:36.635Z,0
2016-09-25T01:04:36.603Z,0
2016-09-25T01:05:36.707Z,0
2016-09-25T01:06:36.268Z,0
2016-09-25T01:07:36.683Z,0
2016-09-25T01:08:36.544Z,0
2016-09-25T01:09:36.865Z,0
2016-09-25T01:10:36.186Z,0
2016-09-25T01:11:36.824Z,0
2016-09-25T01:12:36.490Z,0
2016-09-25T01:13:36.152Z,0
2016-09-25T01:14:36.467Z,0
2016-09-25T01:15:36.752Z,0
2016-09-25T01:16:36.093Z,0
2016-09-25T01:17:36.401Z,0
2016-09-25T01:18:36.696Z,0
2016-09-25T01:19:36.691Z,0
2016-09-25T01:20:36.034Z,0
2016-09-25T01:21:36.359Z,0
2016-09-25T01:22:36.657Z,0
2016-09-25T01:23:36.306Z,0
2016-09-25T01:24:35.994Z,0
2016-09-25T01:25:36.286Z,0
2016-09-25T01:26:36.276Z,0
2016-09-25T01:27:36.246Z,0
2016-09-25T01:28:36.234Z,0
2016-09-25T01:29:36.545Z,0
2016-09-25T01:30:36.512Z,0
2016-09-25T01:31:36.513Z,0
2016-09-25T01:32:36.536Z,0
2016-09-25T01:33:36.479Z,0
2016-09-25T01:34:36.456Z,0
2016-09-25T01:35:36.114Z,0
2016-09-25T01:36:35.773Z,0
2016-09-25T01:37:36.423Z,0
2016-09-25T01:38:36.489Z,0
2016-09-25T01:39:36.065Z,0
2016-09-25T01:40:36.046Z,0
2016-09-25T01:41:36.036Z,0
2016-09-25T01:42:36.409Z,0
2016-09-25T01:43:35.715Z,0
2016-09-25T01:44:35.969Z,0
2016-09-25T01:45:35.731Z,0
2016-09-25T01:46:35.621Z,0
2016-09-25T01:47:35.931Z,0
2016-09-25T01:48:35.907Z,0
2016-09-25T01:49:36.296Z,0
2016-09-25T01:50:35.857Z,0
2016-09-25T01:51:36.227Z,0
2016-09-25T01:52:35.855Z,0
2016-09-25T01:53:36.145Z,0
2016-09-25T01:54:36.147Z,0
2016-09-25T01:55:36.216Z,0
2016-09-25T01:56:35.783Z,0
2016-09-25T01:57:35.515Z,0
2016-09-25T01:58:35.747Z,0
2016-09-25T01:59:35.753Z,0
2016-09-25T02:00:35.783Z,0
2016-09-25T02:01:36.013Z,0
2016-09-25T02:02:36.113Z,0
2016-09-25T02:03:35.996Z,0
2016-09-25T02:04:36.064Z,0
2016-09-25T02:05:35.684Z,0
2016-09-25T02:06:35.717Z,0
2016-09-25T02:07:36.023Z,0
2016-09-25T02:08:35.583Z,0
2016-09-25T02:09:35.955Z,0
2016-09-25T02:10:35.233Z,0
2016-09-25T02:11:35.205Z,0
2016-09-25T02:12:35.884Z,0
2016-09-25T02:13:35.186Z,0
2016-09-25T02:14:35.163Z,0
2016-09-25T02:15:35.468Z,0
2016-09-25T02:16:34.805Z,0
2016-09-25T02:17:35.765Z,0
2016-09-25T02:18:35.477Z,0
2016-09-25T02:19:35.816Z,0
2016-09-25T02:20:35.386Z,0
2016-09-25T02:21:35.417Z,0
2016-09-25T02:22:35.403Z,0
2016-09-25T02:23:35.388Z,0
2016-09-25T02:24:35.311Z,0
2016-09-25T02:25:35.304Z,0
2016-09-25T02:26:35.654Z,0
2016-09-25T02:27:35.616Z,0
2016-09-25T02:28:35.253Z,0
2016-09-25T02:29:35.234Z,0
2016-09-25T02:30:35.225Z,0
2016-09-25T02:31:35.000Z,0
2016-09-25T02:32:35.560Z,0
2016-09-25T02:33:35.550Z,0
2016-09-25T02:34:35.478Z,0
2016-09-25T02:35:35.145Z,0
2016-09-25T02:36:35.443Z,0
2016-09-25T02:37:35.441Z,0
2016-09-25T02:38:35.490Z,0
2016-09-25T02:39:35.067Z,0
2016-09-25T02:40:35.369Z,0
2016-09-25T02:41:35.353Z,0
2016-09-25T02:42:35.013Z,0
2016-09-25T02:43:35.052Z,0
2016-09-25T02:44:35.305Z,0
2016-09-25T02:45:35.589Z,0
2016-09-25T02:46:35.275Z,0
2016-09-25T02:47:34.637Z,0
2016-09-25T02:48:35.254Z,0
2016-09-25T02:49:34.934Z,0
2016-09-25T02:50:34.901Z,0
2016-09-25T02:51:34.567Z,0
2016-09-25T02:52:35.167Z,0
2016-09-25T02:53:34.837Z,0
2016-09-25T02:54:34.846Z,0
2016-09-25T02:55:34.806Z,0
2016-09-25T02:56:35.105Z,0
2016-09-25T02:57:34.776Z,0
2016-09-25T02:58:34.826Z,0
2016-09-25T02:59:34.741Z,0
2016-09-25T03:00:35.045Z,0
2016-09-25T03:01:35.032Z,0
2016-09-25T03:02:34.056Z,0
2016-09-25T03:03:34.678Z,0
2016-09-25T03:04:34.012Z,0
2016-09-25T03:05:34.645Z,0
2016-09-25T03:06:34.626Z,0
2016-09-25T03:07:34.719Z,0
2016-09-25T03:08:34.581Z,0
2016-09-25T03:09:34.899Z,0
2016-09-25T03:10:34.882Z,0
2016-09-25T03:11:34.872Z,0
2016-09-25T03:12:34.840Z,0
2016-09-25T03:13:34.823Z,0
2016-09-25T03:14:34.492Z,0
2016-09-25T03:15:34.493Z,0
2016-09-25T03:16:34.803Z,0
2016-09-25T03:17:34.789Z,0
2016-09-25T03:18:34.101Z,0
2016-09-25T03:19:34.735Z,0
2016-09-25T03:20:34.402Z,0
2016-09-25T03:21:34.373Z,0
2016-09-25T03:22:34.040Z,0
2016-09-25T03:23:34.003Z,0
2016-09-25T03:24:34.332Z,0
2016-09-25T03:25:34.327Z,0
2016-09-25T03:26:34.345Z,0
2016-09-25T03:27:34.295Z,0
2016-09-25T03:28:34.253Z,0
2016-09-25T03:29:33.946Z,0
2016-09-25T03:30:34.263Z,0
2016-09-25T03:31:34.533Z,0
2016-09-25T03:32:34.534Z,0
2016-09-25T03:33:34.183Z,0
2016-09-25T03:34:34.492Z,0
2016-09-25T03:35:34.464Z,0
2016-09-25T03:36:34.146Z,0
2016-09-25T03:37:33.809Z,0
2016-09-25T03:38:33.775Z,0
2016-09-25T03:39:34.086Z,0
2016-09-25T03:40:33.727Z,0
2016-09-25T03:41:34.376Z,0
2016-09-25T03:42:34.341Z,0
2016-09-25T03:43:33.692Z,0
2016-09-25T03:44:34.313Z,0
2016-09-25T03:45:33.981Z,0
2016-09-25T03:46:34.282Z,0
2016-09-25T03:47:33.624Z,0
2016-09-25T03:48:33.933Z,0
2016-09-25T03:49:34.245Z,0
2016-09-25T03:50:34.213Z,0
2016-09-25T03:51:33.884Z,0
2016-09-25T03:52:34.174Z,0
2016-09-25T03:53:33.860Z,0
2016-09-25T03:54:33.844Z,0
2016-09-25T03:55:33.830Z,0
2016-09-25T03:56:33.808Z,0
2016-09-25T03:57:33.771Z,0
2016-09-25T03:58:33.771Z,0
2016-09-25T03:59:33.744Z,0
2016-09-25T04:00:33.455Z,0
2016-09-25T04:01:33.714Z,0
2016-09-25T04:02:33.371Z,0
2016-09-25T04:03:33.681Z,0
2016-09-25T04:04:33.666Z,0
2016-09-25T04:05:33.325Z,0
2016-09-25T04:06:33.624Z,0
2016-09-25T04:07:33.931Z,0
2016-09-25T04:08:33.599Z,0
2016-09-25T04:09:33.584Z,0
2016-09-25T04:10:33.873Z,0
2016-09-25T04:11:33.582Z,0
2016-09-25T04:12:33.843Z,0
2016-09-25T04:13:33.992Z,0
2016-09-25T04:14:33.274Z,0
2016-09-25T04:15:33.585Z,0
2016-09-25T04:16:33.474Z,0
2016-09-25T04:17:33.451Z,0
2016-09-25T04:18:33.421Z,0
2016-09-25T04:19:33.069Z,0
2016-09-25T04:20:33.377Z,0
2016-09-25T04:21:33.683Z,0
2016-09-25T04:22:33.050Z,0
2016-09-25T04:23:33.005Z,0
2016-09-25T04:24:33.654Z,0
2016-09-25T04:25:33.639Z,0
2016-09-25T04:26:33.287Z,0
2016-09-25T04:27:33.739Z,0
2016-09-25T04:28:33.248Z,0
2016-09-25T04:29:33.232Z,0
2016-09-25T04:30:33.216Z,0
2016-09-25T04:31:33.201Z,0
2016-09-25T04:32:33.204Z,0
2016-09-25T04:33:32.916Z,0
2016-09-25T04:34:32.826Z,0
2016-09-25T04:35:33.149Z,0
2016-09-25T04:36:33.524Z,0
2016-09-25T04:37:32.805Z,0
2016-09-25T04:38:33.079Z,0
2016-09-25T04:39:33.112Z,0
2016-09-25T04:40:33.045Z,0
2016-09-25T04:41:33.052Z,0
2016-09-25T04:42:32.716Z,0
2016-09-25T04:43:33.002Z,0
2016-09-25T04:44:33.307Z,0
2016-09-25T04:45:33.368Z,0
2016-09-25T04:46:33.277Z,0
2016-09-25T04:47:33.326Z,0
2016-09-25T04:48:32.914Z,0
2016-09-25T04:49:32.571Z,4
2016-09-25T04:50:32.556Z,4
2016-09-25T04:51:33.243Z,0
2016-09-25T04:52:33.167Z,0
2016-09-25T04:53:32.834Z,4
2016-09-25T04:54:32.810Z,4
2016-09-25T04:55:33.113Z,4
2016-09-25T04:56:33.111Z,4
2016-09-25T04:57:33.078Z,4
2016-09-25T04:58:33.083Z,8
2016-09-25T04:59:33.086Z,8
2016-09-25T05:00:33.025Z,12
2016-09-25T05:01:32.025Z,12
2016-09-25T05:02:33.002Z,16
2016-09-25T05:03:32.994Z,16
2016-09-25T05:04:33.013Z,24
2016-09-25T05:05:32.931Z,24
2016-09-25T05:06:32.944Z,32
2016-09-25T05:07:32.253Z,32
2016-09-25T05:08:32.890Z,40
2016-09-25T05:09:32.551Z,44
2016-09-25T05:10:32.527Z,52
2016-09-25T05:11:32.884Z,56
2016-09-25T05:12:32.876Z,60
2016-09-25T05:13:32.853Z,72
2016-09-25T05:14:32.127Z,80
2016-09-25T05:15:32.436Z,88
2016-09-25T05:16:32.446Z,100
2016-09-25T05:17:32.404Z,112
2016-09-25T05:18:32.080Z,124
2016-09-25T05:19:32.688Z,136
2016-09-25T05:20:32.352Z,152
2016-09-25T05:21:32.683Z,168
2016-09-25T05:22:32.325Z,184
2016-09-25T05:23:32.716Z,204
2016-09-25T05:24:32.607Z,224
2016-09-25T05:25:32.262Z,244
2016-09-25T05:26:31.932Z,268
2016-09-25T05:27:32.566Z,296
2016-09-25T05:28:32.216Z,320
2016-09-25T05:29:32.526Z,348
2016-09-25T05:30:32.506Z,376
2016-09-25T05:31:32.505Z,412
2016-09-25T05:32:32.467Z,448
2016-09-25T05:33:32.456Z,492
2016-09-25T05:34:32.434Z,532
2016-09-25T05:35:31.772Z,568
2016-09-25T05:36:31.804Z,604
2016-09-25T05:37:32.066Z,640
2016-09-25T05:38:32.117Z,676
2016-09-25T05:39:31.706Z,716
2016-09-25T05:40:32.063Z,752
2016-09-25T05:41:31.997Z,796
2016-09-25T05:42:31.764Z,832
2016-09-25T05:43:31.957Z,868
2016-09-25T05:44:31.667Z,912
2016-09-25T05:45:31.923Z,952
2016-09-25T05:46:32.317Z,1000
2016-09-25T05:47:32.205Z,1040
2016-09-25T05:48:32.193Z,1084
2016-09-25T05:49:32.182Z,1128
2016-09-25T05:50:31.837Z,1168
2016-09-25T05:51:32.134Z,1212
2016-09-25T05:52:31.896Z,1256
2016-09-25T05:53:32.104Z,1300
2016-09-25T05:54:32.180Z,1340
2016-09-25T05:55:31.487Z,1388
2016-09-25T05:56:32.148Z,1432
2016-09-25T05:57:31.771Z,1468
2016-09-25T05:58:32.024Z,1508
2016-09-25T05:59:31.361Z,1552
2016-09-25T06:00:31.988Z,1596
2016-09-25T06:01:31.962Z,1652
2016-09-25T06:02:31.944Z,1704
2016-09-25T06:03:31.287Z,1752
2016-09-25T06:04:31.952Z,1808
2016-09-25T06:05:31.824Z,1860
2016-09-25T06:06:31.623Z,1908
2016-09-25T06:07:31.536Z,1960
2016-09-25T06:08:31.579Z,2012
2016-09-25T06:09:31.524Z,2064
2016-09-25T06:10:31.495Z,2116
2016-09-25T06:11:31.203Z,2172
2016-09-25T06:12:31.517Z,2224
2016-09-25T06:13:31.438Z,2272
2016-09-25T06:14:31.747Z,2324
2016-09-25T06:15:31.427Z,2380
2016-09-25T06:16:31.070Z,2436
2016-09-25T06:17:31.696Z,2484
2016-09-25T06:18:31.366Z,2544
2016-09-25T06:19:31.686Z,2600
2016-09-25T06:20:30.673Z,2660
2016-09-25T06:21:31.402Z,2728
2016-09-25T06:22:31.026Z,2800
2016-09-25T06:23:31.586Z,2864
2016-09-25T06:24:30.970Z,2936
2016-09-25T06:25:31.244Z,3016
2016-09-25T06:26:31.534Z,3080
2016-09-25T06:27:31.203Z,3140
2016-09-25T06:28:31.186Z,3188
2016-09-25T06:29:31.180Z,3224
2016-09-25T06:30:31.154Z,3248
2016-09-25T06:31:30.812Z,3308
2016-09-25T06:32:31.438Z,3392
2016-09-25T06:33:31.498Z,3516
2016-09-25T06:34:31.392Z,3648
2016-09-25T06:35:31.070Z,3748
2016-09-25T06:36:31.370Z,3928
2016-09-25T06:37:31.349Z,12728
2016-09-25T06:38:30.755Z,9292
2016-09-25T06:39:30.995Z,4460
2016-09-25T06:40:30.649Z,4524
2016-09-25T06:41:30.959Z,8732
2016-09-25T06:42:31.278Z,8000
2016-09-25T06:43:30.928Z,4708
2016-09-25T06:44:31.236Z,4804
2016-09-25T06:45:31.231Z,5068
2016-09-25T06:46:30.567Z,9480
2016-09-25T06:47:30.872Z,40032
2016-09-25T06:48:30.866Z,56736
2016-09-25T06:49:30.522Z,56576
2016-09-25T06:50:31.152Z,58432
2016-09-25T06:51:30.853Z,61984
2016-09-25T06:52:30.504Z,64896
2016-09-25T06:53:31.109Z,60832
2016-09-25T06:54:30.771Z,53920
2016-09-25T06:55:30.758Z,50944
2016-09-25T06:56:30.743Z,54368
2016-09-25T06:57:30.831Z,62944
2016-09-25T06:58:31.043Z,66208
2016-09-25T06:59:30.717Z,62816
2016-09-25T07:00:31.019Z,61120
2016-09-25T07:01:31.009Z,59680
2016-09-25T07:02:30.995Z,35264
2016-09-25T07:03:30.716Z,9084
2016-09-25T07:04:30.958Z,6736
2016-09-25T07:05:30.679Z,19168
2016-09-25T07:06:30.962Z,46304
2016-09-25T07:07:30.947Z,40576
2016-09-25T07:08:30.606Z,11188
2016-09-25T07:09:30.646Z,6576
2016-09-25T07:10:30.578Z,18464
2016-09-25T07:11:30.892Z,31456
2016-09-25T07:12:30.876Z,21536
2016-09-25T07:13:30.543Z,6920
2016-09-25T07:14:30.850Z,6824
2016-09-25T07:15:30.839Z,13356
2016-09-25T07:16:30.195Z,17920
2016-09-25T07:17:30.499Z,14912
2016-09-25T07:18:30.169Z,7440
2016-09-25T07:19:30.155Z,7624
2016-09-25T07:20:30.785Z,15200
2016-09-25T07:21:30.458Z,33632
2016-09-25T07:22:30.441Z,56032
2016-09-25T07:23:30.806Z,68640
2016-09-25T07:24:30.736Z,64672
2016-09-25T07:25:30.744Z,57504
2016-09-25T07:26:30.094Z,59488
2016-09-25T07:27:30.375Z,67552
2016-09-25T07:28:30.686Z,70624
2016-09-25T07:29:30.361Z,67424
2016-09-25T07:30:30.759Z,69216
2016-09-25T07:31:30.332Z,74720
2016-09-25T07:32:30.648Z,75296
2016-09-25T07:33:30.317Z,69152
2016-09-25T07:34:30.631Z,67584
2016-09-25T07:35:30.312Z,70048
2016-09-25T07:36:30.609Z,71616
2016-09-25T07:37:30.591Z,73824
2016-09-25T07:38:29.941Z,74496
2016-09-25T07:39:29.971Z,69920
2016-09-25T07:40:30.245Z,65824
2016-09-25T07:41:30.247Z,66592
2016-09-25T07:42:30.251Z,69952
2016-09-25T07:43:30.594Z,71584
2016-09-25T07:44:30.561Z,69728
2016-09-25T07:45:30.536Z,62464
2016-09-25T07:46:29.881Z,59488
2016-09-25T07:47:30.536Z,65856
2016-09-25T07:48:30.257Z,72096
2016-09-25T07:49:30.184Z,79008
2016-09-25T07:50:29.869Z,79680
2016-09-25T07:51:30.507Z,76096
2016-09-25T07:52:30.174Z,77920
2016-09-25T07:53:30.158Z,83616
2016-09-25T07:54:30.474Z,81280
2016-09-25T07:55:30.155Z,74016
2016-09-25T07:56:30.477Z,71360
2016-09-25T07:57:30.141Z,74464
2016-09-25T07:58:29.814Z,78784
2016-09-25T07:59:30.140Z,78016
2016-09-25T08:00:29.490Z,72928
2016-09-25T08:01:29.476Z,72832
2016-09-25T08:02:29.797Z,78144
2016-09-25T08:03:30.120Z,77824
2016-09-25T08:04:30.437Z,74240
2016-09-25T08:05:30.095Z,76864
2016-09-25T08:06:30.510Z,79936
2016-09-25T08:07:30.091Z,76576
2016-09-25T08:08:30.415Z,76736
2016-09-25T08:09:30.098Z,82592
2016-09-25T08:10:30.162Z,78720
2016-09-25T08:11:30.409Z,72224
2016-09-25T08:12:29.448Z,76000
2016-09-25T08:13:29.771Z,80192
2016-09-25T08:14:29.803Z,78112
2016-09-25T08:15:29.750Z,77088
2016-09-25T08:16:30.070Z,79904
2016-09-25T08:17:29.745Z,78880
2016-09-25T08:18:30.066Z,76320
2016-09-25T08:19:29.749Z,75648
2016-09-25T08:20:30.056Z,77472
2016-09-25T08:21:30.046Z,78336
2016-09-25T08:22:30.355Z,77600
2016-09-25T08:23:30.070Z,76576
2016-09-25T08:24:30.059Z,77408
2016-09-25T08:25:30.396Z,77120
2016-09-25T08:26:30.359Z,74688
2016-09-25T08:27:30.036Z,75712
2016-09-25T08:28:30.038Z,78752
2016-09-25T08:29:30.040Z,78112
2016-09-25T08:30:29.714Z,74400
2016-09-25T08:31:30.039Z,77632
2016-09-25T08:32:30.030Z,78432
2016-09-25T08:33:29.706Z,73088
2016-09-25T08:34:30.025Z,75488
2016-09-25T08:35:29.713Z,79328
2016-09-25T08:36:30.381Z,75616
2016-09-25T08:37:30.345Z,77664
2016-09-25T08:38:30.026Z,81152
2016-09-25T08:39:30.347Z,78304
2016-09-25T08:40:30.328Z,76960
2016-09-25T08:41:30.379Z,79328
2016-09-25T08:42:30.014Z,80736
2016-09-25T08:43:30.320Z,77376
2016-09-25T08:44:30.322Z,79776
2016-09-25T08:45:30.322Z,82560
2016-09-25T08:46:30.001Z,79776
2016-09-25T08:47:30.318Z,81920
2016-09-25T08:48:30.326Z,84736
2016-09-25T08:49:29.673Z,78976
2016-09-25T08:50:30.333Z,77024
2016-09-25T08:51:29.995Z,80800
2016-09-25T08:52:30.324Z,73824
2016-09-25T08:53:30.316Z,72736
2016-09-25T08:54:30.005Z,78784
2016-09-25T08:55:30.006Z,74208
2016-09-25T08:56:29.753Z,74784
2016-09-25T08:57:29.972Z,79264
2016-09-25T08:58:29.656Z,74912
2016-09-25T08:59:29.647Z,74336
2016-09-25T09:00:29.982Z,74464
2016-09-25T09:01:29.975Z,75552
2016-09-25T09:02:29.977Z,76480
2016-09-25T09:03:29.340Z,76448
2016-09-25T09:04:30.006Z,76256
2016-09-25T09:05:29.976Z,71296
2016-09-25T09:06:29.970Z,69888
2016-09-25T09:07:29.968Z,73792
2016-09-25T09:08:29.980Z,69792
2016-09-25T09:09:29.952Z,72192
2016-09-25T09:10:29.636Z,77056
2016-09-25T09:11:30.300Z,72256
2016-09-25T09:12:30.266Z,71104
2016-09-25T09:13:29.946Z,68320
2016-09-25T09:14:30.378Z,67456
2016-09-25T09:15:29.627Z,65376
2016-09-25T09:16:29.635Z,68320
2016-09-25T09:17:29.962Z,65984
2016-09-25T09:18:29.951Z,65248
2016-09-25T09:19:29.633Z,66208
2016-09-25T09:20:29.981Z,68288
2016-09-25T09:21:29.984Z,52384
2016-09-25T09:22:29.933Z,65408
2016-09-25T09:23:29.942Z,66400
2016-09-25T09:24:29.934Z,65472
2016-09-25T09:25:29.939Z,66848
2016-09-25T09:26:29.913Z,63872
2016-09-25T09:27:29.929Z,62304
2016-09-25T09:28:30.236Z,62048
2016-09-25T09:29:30.028Z,60640
2016-09-25T09:30:29.920Z,59712
2016-09-25T09:31:29.638Z,60192
2016-09-25T09:32:30.281Z,59104
2016-09-25T09:33:30.291Z,61792
2016-09-25T09:34:30.241Z,63392
2016-09-25T09:35:30.276Z,61280
2016-09-25T09:36:29.922Z,60736
2016-09-25T09:37:30.246Z,59456
2016-09-25T09:38:29.608Z,57600
2016-09-25T09:39:29.958Z,60672
2016-09-25T09:40:29.274Z,58336
2016-09-25T09:41:29.267Z,58592
2016-09-25T09:42:30.118Z,58784
2016-09-25T09:43:29.586Z,57312
2016-09-25T09:44:30.250Z,54848
2016-09-25T09:45:29.912Z,53568
2016-09-25T09:46:29.577Z,53152
2016-09-25T09:47:29.902Z,56160
2016-09-25T09:48:29.989Z,55712
2016-09-25T09:49:29.885Z,54112
2016-09-25T09:50:29.942Z,51712
2016-09-25T09:51:29.571Z,52608
2016-09-25T09:52:30.216Z,53248
2016-09-25T09:53:29.866Z,52384
2016-09-25T09:54:29.866Z,51488
2016-09-25T09:55:29.565Z,51072
2016-09-25T09:56:29.866Z,47424
2016-09-25T09:57:29.552Z,47680
2016-09-25T09:58:30.259Z,48608
2016-09-25T09:59:29.863Z,49216
2016-09-25T10:00:29.866Z,47456
2016-09-25T10:01:29.535Z,44704
2016-09-25T10:02:29.869Z,45824
2016-09-25T10:03:29.860Z,48544
2016-09-25T10:04:30.177Z,47264
2016-09-25T10:05:29.833Z,44544
2016-09-25T10:06:30.181Z,44128
2016-09-25T10:07:30.170Z,43520
2016-09-25T10:08:29.572Z,42560
2016-09-25T10:09:30.175Z,42272
2016-09-25T10:10:30.156Z,40512
2016-09-25T10:11:29.546Z,38880
2016-09-25T10:12:30.125Z,36960
2016-09-25T10:13:29.827Z,37984
2016-09-25T10:14:29.165Z,39776
2016-09-25T10:15:29.496Z,38016
2016-09-25T10:16:30.135Z,37504
2016-09-25T10:17:29.796Z,37152
2016-09-25T10:18:29.809Z,31744
2016-09-25T10:19:29.796Z,33088
2016-09-25T10:20:29.797Z,36896
2016-09-25T10:21:29.788Z,35648
2016-09-25T10:22:29.788Z,33536
2016-09-25T10:23:29.511Z,31680
2016-09-25T10:24:29.197Z,32032
2016-09-25T10:25:30.100Z,34880
2016-09-25T10:26:29.771Z,33376
2016-09-25T10:27:29.880Z,33632
2016-09-25T10:28:29.765Z,33280
2016-09-25T10:29:29.876Z,33472
2016-09-25T10:30:30.169Z,30880
2016-09-25T10:31:29.740Z,30240
2016-09-25T10:32:29.744Z,29696
2016-09-25T10:33:29.753Z,28064
2016-09-25T10:34:30.051Z,25856
2016-09-25T10:35:29.784Z,26688
2016-09-25T10:36:29.728Z,22944
2016-09-25T10:37:29.789Z,23360
2016-09-25T10:38:29.788Z,28128
2016-09-25T10:39:29.162Z,36384
2016-09-25T10:40:30.018Z,46240
2016-09-25T10:41:29.710Z,29120
2016-09-25T10:42:29.376Z,18272
2016-09-25T10:43:29.706Z,17152
2016-09-25T10:44:30.037Z,16032
2016-09-25T10:45:29.727Z,16032
2016-09-25T10:46:29.685Z,17216
2016-09-25T10:47:29.676Z,19232
2016-09-25T10:48:29.756Z,19936
2016-09-25T10:49:29.674Z,19424
2016-09-25T10:50:29.659Z,19168
2016-09-25T10:51:29.975Z,22144
2016-09-25T10:52:29.657Z,28416
2016-09-25T10:53:29.660Z,29888
2016-09-25T10:54:29.696Z,20480
2016-09-25T10:55:29.646Z,9968
2016-09-25T10:56:29.947Z,8908
2016-09-25T10:57:29.666Z,8900
2016-09-25T10:58:29.948Z,8936
2016-09-25T10:59:29.969Z,8952
2016-09-25T11:00:29.948Z,8976
2016-09-25T11:01:29.628Z,8936
2016-09-25T11:02:29.645Z,8956
2016-09-25T11:03:29.275Z,8944
2016-09-25T11:04:29.925Z,8948
2016-09-25T11:05:29.624Z,8948
2016-09-25T11:06:29.931Z,8960
2016-09-25T11:07:29.579Z,8956
2016-09-25T11:08:29.889Z,8924
2016-09-25T11:09:29.612Z,8928
2016-09-25T11:10:29.969Z,8892
2016-09-25T11:11:29.609Z,8892
2016-09-25T11:12:29.557Z,8888
2016-09-25T11:13:29.552Z,8892
2016-09-25T11:14:29.590Z,8880
2016-09-25T11:15:29.545Z,8880
2016-09-25T11:16:29.857Z,8884
2016-09-25T11:17:29.526Z,8888
2016-09-25T11:18:29.579Z,8916
2016-09-25T11:19:29.842Z,8932
2016-09-25T11:20:29.540Z,8956
2016-09-25T11:21:29.504Z,8956
2016-09-25T11:22:29.231Z,8952
2016-09-25T11:23:29.495Z,9012
2016-09-25T11:24:29.154Z,9036
2016-09-25T11:25:29.476Z,9048
2016-09-25T11:26:29.475Z,9068
2016-09-25T11:27:29.776Z,9052
2016-09-25T11:28:29.765Z,9072
2016-09-25T11:29:29.753Z,9092
2016-09-25T11:30:29.441Z,9080
2016-09-25T11:31:29.433Z,9116
2016-09-25T11:32:29.470Z,9124
2016-09-25T11:33:29.436Z,9144
2016-09-25T11:34:29.476Z,9160
2016-09-25T11:35:29.737Z,9168
2016-09-25T11:36:29.170Z,9188
2016-09-25T11:37:29.407Z,9160
2016-09-25T11:38:29.809Z,9168
2016-09-25T11:39:29.404Z,9172
2016-09-25T11:40:29.137Z,9172
2016-09-25T11:41:29.755Z,9156
2016-09-25T11:42:29.398Z,9176
2016-09-25T11:43:29.365Z,9220
2016-09-25T11:44:29.774Z,9248
2016-09-25T11:45:29.418Z,9244
2016-09-25T11:46:29.694Z,9264
2016-09-25T11:47:29.024Z,9292
2016-09-25T11:48:29.677Z,9336
2016-09-25T11:49:29.660Z,9352
2016-09-25T11:50:29.658Z,9348
2016-09-25T11:51:29.342Z,9352
2016-09-25T11:52:29.068Z,9348
2016-09-25T11:53:29.388Z,9380
2016-09-25T11:54:29.647Z,9372
2016-09-25T11:55:29.637Z,9376
2016-09-25T11:56:29.295Z,9376
2016-09-25T11:57:29.324Z,9380
2016-09-25T11:58:28.758Z,9352
2016-09-25T11:59:28.975Z,9348
2016-09-25T12:00:29.297Z,9368
2016-09-25T12:01:29.335Z,9264
2016-09-25T12:02:28.946Z,9256
2016-09-25T12:03:28.626Z,9288
2016-09-25T12:04:29.572Z,9272
2016-09-25T12:05:29.008Z,9284
2016-09-25T12:06:29.301Z,9288
2016-09-25T12:07:29.576Z,9284
2016-09-25T12:08:28.933Z,9312
2016-09-25T12:09:28.934Z,9332
2016-09-25T12:10:28.902Z,9328
2016-09-25T12:11:29.293Z,9304
2016-09-25T12:12:28.902Z,9304
2016-09-25T12:13:29.218Z,9296
2016-09-25T12:14:29.598Z,9292
2016-09-25T12:15:29.235Z,9360
2016-09-25T12:16:29.205Z,9420
2016-09-25T12:17:29.535Z,9468
2016-09-25T12:18:29.210Z,9476
2016-09-25T12:19:29.536Z,9492
2016-09-25T12:20:29.528Z,9508
2016-09-25T12:21:29.496Z,9512
2016-09-25T12:22:29.496Z,9476
2016-09-25T12:23:29.495Z,9480
2016-09-25T12:24:29.496Z,9456
2016-09-25T12:25:29.528Z,9512
2016-09-25T12:26:29.162Z,9492
2016-09-25T12:27:29.480Z,9468
2016-09-25T12:28:29.146Z,9448
2016-09-25T12:29:28.505Z,9488
2016-09-25T12:30:29.147Z,9472
2016-09-25T12:31:29.144Z,9420
2016-09-25T12:32:28.885Z,8528
2016-09-25T12:33:29.456Z,9344
2016-09-25T12:34:29.145Z,9352
2016-09-25T12:35:29.235Z,9244
2016-09-25T12:36:28.788Z,9356
2016-09-25T12:37:28.783Z,9356
2016-09-25T12:38:29.103Z,9364
2016-09-25T12:39:28.798Z,9372
2016-09-25T12:40:29.402Z,9408
2016-09-25T12:41:29.408Z,9432
2016-09-25T12:42:28.765Z,9372
2016-09-25T12:43:28.750Z,9396
2016-09-25T12:44:29.185Z,9364
2016-09-25T12:45:29.073Z,9508
2016-09-25T12:46:29.169Z,9576
2016-09-25T12:47:29.057Z,9540
2016-09-25T12:48:29.377Z,9512
2016-09-25T12:49:29.375Z,9540
2016-09-25T12:50:29.025Z,9356
2016-09-25T12:51:28.714Z,9516
2016-09-25T12:52:29.010Z,9548
2016-09-25T12:53:29.028Z,9512
2016-09-25T12:54:29.330Z,9512
2016-09-25T12:55:29.319Z,9548
2016-09-25T12:56:28.686Z,9544
2016-09-25T12:57:28.997Z,9552
2016-09-25T12:58:28.660Z,9512
2016-09-25T12:59:28.994Z,9404
2016-09-25T13:00:28.964Z,9464
2016-09-25T13:01:28.961Z,9476
2016-09-25T13:02:29.288Z,9508
2016-09-25T13:03:29.317Z,9432
2016-09-25T13:04:29.274Z,9332
2016-09-25T13:05:29.255Z,9136
2016-09-25T13:06:28.632Z,9156
2016-09-25T13:07:29.017Z,9308
2016-09-25T13:08:29.255Z,9384
2016-09-25T13:09:28.612Z,9164
2016-09-25T13:10:29.226Z,9176
2016-09-25T13:11:28.629Z,9324
2016-09-25T13:12:28.587Z,9312
2016-09-25T13:13:28.892Z,9272
2016-09-25T13:14:28.878Z,9308
2016-09-25T13:15:28.887Z,9364
2016-09-25T13:16:28.887Z,9528
2016-09-25T13:17:28.247Z,9460
2016-09-25T13:18:28.553Z,9384
2016-09-25T13:19:28.934Z,9380
2016-09-25T13:20:28.536Z,7708
2016-09-25T13:21:28.552Z,8028
2016-09-25T13:22:28.868Z,9240
2016-09-25T13:23:29.159Z,9336
2016-09-25T13:24:29.183Z,9380
2016-09-25T13:25:28.831Z,9584
2016-09-25T13:26:28.827Z,9536
2016-09-25T13:27:29.163Z,9528
2016-09-25T13:28:28.809Z,9428
2016-09-25T13:29:29.146Z,9520
2016-09-25T13:30:29.178Z,9504
2016-09-25T13:31:28.163Z,9560
2016-09-25T13:32:28.795Z,9636
2016-09-25T13:33:29.103Z,9632
2016-09-25T13:34:29.098Z,9588
2016-09-25T13:35:28.438Z,9568
2016-09-25T13:36:29.104Z,9468
2016-09-25T13:37:28.773Z,9540
2016-09-25T13:38:29.086Z,9520
2016-09-25T13:39:28.431Z,9560
2016-09-25T13:40:29.076Z,9592
2016-09-25T13:41:28.761Z,9616
2016-09-25T13:42:29.089Z,9628